sensor_id;sensor_type;location;lat;lon;timestamp;P1;durP1;ratioP1;P2;durP2;ratioP2
78783;SDS011;68127;51.050;14.084;2024-01-27T00:01:35;5.75;;;1.42;;
78783;SDS011;68127;51.050;14.084;2024-01-27T00:04:00;8.23;;;1.35;;
78783;SDS011;68127;51.050;14.084;2024-01-27T00:06:26;12.05;;;2.10;;
78783;SDS011;68127;51.050;14.084;2024-01-27T00:08:51;9.77;;;1.95;;
78783;SDS011;68127;51.050;14.084;2024-01-27T00:11:16;12.15;;;1.98;;
78783;SDS011;68127;51.050;14.084;2024-01-27T00:13:42;8.23;;;1.90;;
78783;SDS011;68127;51.050;14.084;2024-01-27T00:16:07;6.63;;;1.38;;
78783;SDS011;68127;51.050;14.084;2024-01-27T00:18:35;9.77;;;1.90;;
78783;SDS011;68127;51.050;14.084;2024-01-27T00:21:01;8.50;;;2.15;;
78783;SDS011;68127;51.050;14.084;2024-01-27T00:23:26;9.05;;;1.73;;
78783;SDS011;68127;51.050;14.084;2024-01-27T00:25:51;5.53;;;1.23;;
78783;SDS011;68127;51.050;14.084;2024-01-27T00:28:16;6.60;;;1.67;;
78783;SDS011;68127;51.050;14.084;2024-01-27T00:30:42;4.82;;;1.30;;
78783;SDS011;68127;51.050;14.084;2024-01-27T00:33:07;4.10;;;1.25;;
78783;SDS011;68127;51.050;14.084;2024-01-27T00:35:32;7.20;;;1.20;;
78783;SDS011;68127;51.050;14.084;2024-01-27T00:37:57;5.38;;;1.48;;
78783;SDS011;68127;51.050;14.084;2024-01-27T00:40:23;7.72;;;1.48;;
78783;SDS011;68127;51.050;14.084;2024-01-27T00:42:48;8.65;;;1.52;;
78783;SDS011;68127;51.050;14.084;2024-01-27T00:45:13;11.32;;;1.75;;
78783;SDS011;68127;51.050;14.084;2024-01-27T00:47:39;7.25;;;1.42;;
78783;SDS011;68127;51.050;14.084;2024-01-27T00:50:04;7.45;;;1.52;;
78783;SDS011;68127;51.050;14.084;2024-01-27T00:52:30;7.85;;;1.58;;
78783;SDS011;68127;51.050;14.084;2024-01-27T00:54:56;7.55;;;2.08;;
78783;SDS011;68127;51.050;14.084;2024-01-27T00:57:21;9.93;;;1.92;;
78783;SDS011;68127;51.050;14.084;2024-01-27T00:59:46;8.43;;;1.98;;
78783;SDS011;68127;51.050;14.084;2024-01-27T01:02:11;8.98;;;1.98;;
78783;SDS011;68127;51.050;14.084;2024-01-27T01:04:37;9.93;;;1.70;;
78783;SDS011;68127;51.050;14.084;2024-01-27T01:07:02;5.28;;;1.60;;
78783;SDS011;68127;51.050;14.084;2024-01-27T01:09:28;7.10;;;1.48;;
78783;SDS011;68127;51.050;14.084;2024-01-27T01:11:53;8.18;;;1.58;;
78783;SDS011;68127;51.050;14.084;2024-01-27T01:14:18;8.65;;;1.77;;
78783;SDS011;68127;51.050;14.084;2024-01-27T01:16:44;7.57;;;1.48;;
78783;SDS011;68127;51.050;14.084;2024-01-27T01:19:09;7.45;;;2.40;;
78783;SDS011;68127;51.050;14.084;2024-01-27T01:21:34;4.43;;;1.60;;
78783;SDS011;68127;51.050;14.084;2024-01-27T01:23:59;7.93;;;1.70;;
78783;SDS011;68127;51.050;14.084;2024-01-27T01:26:25;9.55;;;2.00;;
78783;SDS011;68127;51.050;14.084;2024-01-27T01:28:50;8.07;;;1.65;;
78783;SDS011;68127;51.050;14.084;2024-01-27T01:31:16;10.30;;;1.80;;
78783;SDS011;68127;51.050;14.084;2024-01-27T01:33:41;7.47;;;1.90;;
78783;SDS011;68127;51.050;14.084;2024-01-27T01:36:07;8.75;;;1.80;;
78783;SDS011;68127;51.050;14.084;2024-01-27T01:38:32;4.63;;;1.23;;
78783;SDS011;68127;51.050;14.084;2024-01-27T01:40:58;6.80;;;1.70;;
78783;SDS011;68127;51.050;14.084;2024-01-27T01:43:23;7.32;;;1.70;;
78783;SDS011;68127;51.050;14.084;2024-01-27T01:45:48;7.10;;;1.98;;
78783;SDS011;68127;51.050;14.084;2024-01-27T01:48:15;5.13;;;1.75;;
78783;SDS011;68127;51.050;14.084;2024-01-27T01:50:40;5.82;;;1.40;;
78783;SDS011;68127;51.050;14.084;2024-01-27T01:53:06;5.65;;;1.85;;
78783;SDS011;68127;51.050;14.084;2024-01-27T01:55:31;8.27;;;2.03;;
78783;SDS011;68127;51.050;14.084;2024-01-27T01:57:56;7.53;;;1.95;;
78783;SDS011;68127;51.050;14.084;2024-01-27T02:00:22;10.35;;;2.60;;
78783;SDS011;68127;51.050;14.084;2024-01-27T02:02:47;7.22;;;2.50;;
78783;SDS011;68127;51.050;14.084;2024-01-27T02:05:12;8.60;;;2.05;;
78783;SDS011;68127;51.050;14.084;2024-01-27T02:07:38;9.13;;;1.70;;
78783;SDS011;68127;51.050;14.084;2024-01-27T02:10:03;10.55;;;2.20;;
78783;SDS011;68127;51.050;14.084;2024-01-27T02:12:30;8.00;;;1.58;;
78783;SDS011;68127;51.050;14.084;2024-01-27T02:14:55;9.98;;;2.30;;
78783;SDS011;68127;51.050;14.084;2024-01-27T02:17:21;4.13;;;1.17;;
78783;SDS011;68127;51.050;14.084;2024-01-27T02:19:46;11.27;;;2.03;;
78783;SDS011;68127;51.050;14.084;2024-01-27T02:22:11;7.57;;;2.15;;
78783;SDS011;68127;51.050;14.084;2024-01-27T02:24:36;8.60;;;1.92;;
78783;SDS011;68127;51.050;14.084;2024-01-27T02:27:02;9.93;;;2.35;;
78783;SDS011;68127;51.050;14.084;2024-01-27T02:29:27;10.15;;;2.17;;
78783;SDS011;68127;51.050;14.084;2024-01-27T02:31:53;13.55;;;2.38;;
78783;SDS011;68127;51.050;14.084;2024-01-27T02:34:18;11.40;;;2.10;;
78783;SDS011;68127;51.050;14.084;2024-01-27T02:36:44;5.70;;;1.20;;
78783;SDS011;68127;51.050;14.084;2024-01-27T02:39:09;11.77;;;2.05;;
78783;SDS011;68127;51.050;14.084;2024-01-27T02:41:35;11.02;;;1.70;;
78783;SDS011;68127;51.050;14.084;2024-01-27T02:44:04;9.85;;;1.90;;
78783;SDS011;68127;51.050;14.084;2024-01-27T02:46:29;7.72;;;2.22;;
78783;SDS011;68127;51.050;14.084;2024-01-27T02:48:55;6.13;;;1.73;;
78783;SDS011;68127;51.050;14.084;2024-01-27T02:51:20;7.72;;;2.22;;
78783;SDS011;68127;51.050;14.084;2024-01-27T02:53:45;6.90;;;1.98;;
78783;SDS011;68127;51.050;14.084;2024-01-27T02:56:11;6.18;;;1.80;;
78783;SDS011;68127;51.050;14.084;2024-01-27T02:58:36;10.70;;;2.38;;
78783;SDS011;68127;51.050;14.084;2024-01-27T03:01:01;5.32;;;1.75;;
78783;SDS011;68127;51.050;14.084;2024-01-27T03:03:26;10.00;;;2.17;;
78783;SDS011;68127;51.050;14.084;2024-01-27T03:05:53;11.07;;;2.05;;
78783;SDS011;68127;51.050;14.084;2024-01-27T03:08:19;11.57;;;2.45;;
78783;SDS011;68127;51.050;14.084;2024-01-27T03:10:44;7.55;;;1.90;;
78783;SDS011;68127;51.050;14.084;2024-01-27T03:13:09;3.80;;;1.17;;
78783;SDS011;68127;51.050;14.084;2024-01-27T03:15:34;9.15;;;1.92;;
78783;SDS011;68127;51.050;14.084;2024-01-27T03:18:00;8.38;;;1.63;;
78783;SDS011;68127;51.050;14.084;2024-01-27T03:20:25;8.75;;;1.83;;
78783;SDS011;68127;51.050;14.084;2024-01-27T03:22:50;11.48;;;2.10;;
78783;SDS011;68127;51.050;14.084;2024-01-27T03:25:16;7.93;;;1.73;;
78783;SDS011;68127;51.050;14.084;2024-01-27T03:27:41;8.57;;;1.88;;
78783;SDS011;68127;51.050;14.084;2024-01-27T03:30:06;8.35;;;1.92;;
78783;SDS011;68127;51.050;14.084;2024-01-27T03:32:32;9.00;;;1.58;;
78783;SDS011;68127;51.050;14.084;2024-01-27T03:34:58;6.13;;;1.60;;
78783;SDS011;68127;51.050;14.084;2024-01-27T03:37:24;9.30;;;2.25;;
78783;SDS011;68127;51.050;14.084;2024-01-27T03:39:49;10.40;;;2.03;;
78783;SDS011;68127;51.050;14.084;2024-01-27T03:42:14;7.55;;;2.08;;
78783;SDS011;68127;51.050;14.084;2024-01-27T03:44:40;9.70;;;1.90;;
78783;SDS011;68127;51.050;14.084;2024-01-27T03:47:05;10.63;;;2.60;;
78783;SDS011;68127;51.050;14.084;2024-01-27T03:49:30;9.88;;;2.38;;
78783;SDS011;68127;51.050;14.084;2024-01-27T03:51:55;4.95;;;1.73;;
78783;SDS011;68127;51.050;14.084;2024-01-27T03:54:21;8.43;;;1.67;;
78783;SDS011;68127;51.050;14.084;2024-01-27T03:56:46;11.35;;;2.10;;
78783;SDS011;68127;51.050;14.084;2024-01-27T03:59:11;7.40;;;1.90;;
78783;SDS011;68127;51.050;14.084;2024-01-27T04:01:36;9.90;;;2.10;;
78783;SDS011;68127;51.050;14.084;2024-01-27T04:04:02;6.95;;;2.15;;
78783;SDS011;68127;51.050;14.084;2024-01-27T04:06:27;11.50;;;2.25;;
78783;SDS011;68127;51.050;14.084;2024-01-27T04:08:52;7.60;;;1.95;;
78783;SDS011;68127;51.050;14.084;2024-01-27T04:11:18;6.05;;;1.73;;
78783;SDS011;68127;51.050;14.084;2024-01-27T04:13:45;10.15;;;1.90;;
78783;SDS011;68127;51.050;14.084;2024-01-27T04:16:10;8.48;;;2.40;;
78783;SDS011;68127;51.050;14.084;2024-01-27T04:18:35;9.20;;;2.00;;
78783;SDS011;68127;51.050;14.084;2024-01-27T04:21:01;15.15;;;3.15;;
78783;SDS011;68127;51.050;14.084;2024-01-27T04:23:26;7.78;;;1.90;;
78783;SDS011;68127;51.050;14.084;2024-01-27T04:25:51;14.15;;;2.63;;
78783;SDS011;68127;51.050;14.084;2024-01-27T04:28:16;9.95;;;1.77;;
78783;SDS011;68127;51.050;14.084;2024-01-27T04:30:42;9.05;;;1.98;;
78783;SDS011;68127;51.050;14.084;2024-01-27T04:33:07;9.90;;;2.33;;
78783;SDS011;68127;51.050;14.084;2024-01-27T04:35:32;4.97;;;1.30;;
78783;SDS011;68127;51.050;14.084;2024-01-27T04:37:57;12.13;;;1.90;;
78783;SDS011;68127;51.050;14.084;2024-01-27T04:40:24;8.13;;;1.95;;
78783;SDS011;68127;51.050;14.084;2024-01-27T04:42:49;8.90;;;1.95;;
78783;SDS011;68127;51.050;14.084;2024-01-27T04:45:14;8.50;;;1.67;;
78783;SDS011;68127;51.050;14.084;2024-01-27T04:47:40;9.70;;;1.90;;
78783;SDS011;68127;51.050;14.084;2024-01-27T04:50:05;7.68;;;1.63;;
78783;SDS011;68127;51.050;14.084;2024-01-27T04:52:30;6.97;;;1.83;;
78783;SDS011;68127;51.050;14.084;2024-01-27T04:54:56;7.45;;;1.80;;
78783;SDS011;68127;51.050;14.084;2024-01-27T04:57:21;7.10;;;1.98;;
78783;SDS011;68127;51.050;14.084;2024-01-27T04:59:46;8.75;;;2.00;;
78783;SDS011;68127;51.050;14.084;2024-01-27T05:02:11;10.43;;;1.73;;
78783;SDS011;68127;51.050;14.084;2024-01-27T05:04:37;9.32;;;1.63;;
78783;SDS011;68127;51.050;14.084;2024-01-27T05:07:02;8.57;;;1.92;;
78783;SDS011;68127;51.050;14.084;2024-01-27T05:09:28;8.85;;;2.03;;
78783;SDS011;68127;51.050;14.084;2024-01-27T05:11:53;7.82;;;2.15;;
78783;SDS011;68127;51.050;14.084;2024-01-27T05:14:18;10.90;;;2.58;;
78783;SDS011;68127;51.050;14.084;2024-01-27T05:16:44;10.35;;;2.03;;
78783;SDS011;68127;51.050;14.084;2024-01-27T05:19:10;10.02;;;1.98;;
78783;SDS011;68127;51.050;14.084;2024-01-27T05:21:35;8.85;;;2.33;;
78783;SDS011;68127;51.050;14.084;2024-01-27T05:24:00;9.40;;;1.90;;
78783;SDS011;68127;51.050;14.084;2024-01-27T05:26:26;9.52;;;1.70;;
78783;SDS011;68127;51.050;14.084;2024-01-27T05:28:52;12.48;;;2.30;;
78783;SDS011;68127;51.050;14.084;2024-01-27T05:31:17;11.90;;;1.63;;
78783;SDS011;68127;51.050;14.084;2024-01-27T05:33:43;8.20;;;1.90;;
78783;SDS011;68127;51.050;14.084;2024-01-27T05:36:08;10.93;;;2.20;;
78783;SDS011;68127;51.050;14.084;2024-01-27T05:38:33;10.65;;;2.10;;
78783;SDS011;68127;51.050;14.084;2024-01-27T05:41:02;10.35;;;2.10;;
78783;SDS011;68127;51.050;14.084;2024-01-27T05:43:27;9.27;;;2.10;;
78783;SDS011;68127;51.050;14.084;2024-01-27T05:45:52;12.10;;;1.75;;
78783;SDS011;68127;51.050;14.084;2024-01-27T05:48:18;8.60;;;1.88;;
78783;SDS011;68127;51.050;14.084;2024-01-27T05:50:43;9.73;;;2.50;;
78783;SDS011;68127;51.050;14.084;2024-01-27T05:53:08;9.32;;;2.20;;
78783;SDS011;68127;51.050;14.084;2024-01-27T05:55:34;11.68;;;2.08;;
78783;SDS011;68127;51.050;14.084;2024-01-27T05:57:59;7.57;;;2.42;;
78783;SDS011;68127;51.050;14.084;2024-01-27T06:00:24;8.95;;;2.00;;
78783;SDS011;68127;51.050;14.084;2024-01-27T06:02:49;9.30;;;1.77;;
78783;SDS011;68127;51.050;14.084;2024-01-27T06:05:15;12.88;;;2.22;;
78783;SDS011;68127;51.050;14.084;2024-01-27T06:07:40;9.82;;;2.10;;
78783;SDS011;68127;51.050;14.084;2024-01-27T06:10:09;8.32;;;2.22;;
78783;SDS011;68127;51.050;14.084;2024-01-27T06:12:34;8.15;;;2.30;;
78783;SDS011;68127;51.050;14.084;2024-01-27T06:15:00;7.32;;;1.95;;
78783;SDS011;68127;51.050;14.084;2024-01-27T06:17:25;9.35;;;2.20;;
78783;SDS011;68127;51.050;14.084;2024-01-27T06:19:51;11.50;;;2.33;;
78783;SDS011;68127;51.050;14.084;2024-01-27T06:22:16;11.98;;;2.33;;
78783;SDS011;68127;51.050;14.084;2024-01-27T06:24:42;9.57;;;1.65;;
78783;SDS011;68127;51.050;14.084;2024-01-27T06:27:08;12.23;;;2.38;;
78783;SDS011;68127;51.050;14.084;2024-01-27T06:29:34;9.60;;;1.95;;
78783;SDS011;68127;51.050;14.084;2024-01-27T06:31:59;12.25;;;2.55;;
78783;SDS011;68127;51.050;14.084;2024-01-27T06:34:24;13.85;;;2.90;;
78783;SDS011;68127;51.050;14.084;2024-01-27T06:36:49;11.18;;;2.22;;
78783;SDS011;68127;51.050;14.084;2024-01-27T06:39:15;10.45;;;2.60;;
78783;SDS011;68127;51.050;14.084;2024-01-27T06:41:40;12.90;;;2.30;;
78783;SDS011;68127;51.050;14.084;2024-01-27T06:44:05;10.00;;;2.13;;
78783;SDS011;68127;51.050;14.084;2024-01-27T06:46:31;9.60;;;2.00;;
78783;SDS011;68127;51.050;14.084;2024-01-27T06:48:56;15.77;;;2.55;;
78783;SDS011;68127;51.050;14.084;2024-01-27T06:51:21;10.63;;;2.05;;
78783;SDS011;68127;51.050;14.084;2024-01-27T06:53:47;13.05;;;2.20;;
78783;SDS011;68127;51.050;14.084;2024-01-27T06:56:13;9.13;;;1.98;;
78783;SDS011;68127;51.050;14.084;2024-01-27T06:58:38;14.25;;;2.15;;
78783;SDS011;68127;51.050;14.084;2024-01-27T07:01:04;8.63;;;1.85;;
78783;SDS011;68127;51.050;14.084;2024-01-27T07:03:31;7.93;;;2.42;;
78783;SDS011;68127;51.050;14.084;2024-01-27T07:05:57;9.90;;;2.17;;
78783;SDS011;68127;51.050;14.084;2024-01-27T07:08:25;9.00;;;2.10;;
78783;SDS011;68127;51.050;14.084;2024-01-27T07:10:51;14.02;;;2.90;;
78783;SDS011;68127;51.050;14.084;2024-01-27T07:13:16;12.80;;;2.25;;
78783;SDS011;68127;51.050;14.084;2024-01-27T07:15:41;11.60;;;2.10;;
78783;SDS011;68127;51.050;14.084;2024-01-27T07:18:07;12.77;;;2.28;;
78783;SDS011;68127;51.050;14.084;2024-01-27T07:20:33;9.68;;;3.25;;
78783;SDS011;68127;51.050;14.084;2024-01-27T07:22:58;14.00;;;2.83;;
78783;SDS011;68127;51.050;14.084;2024-01-27T07:25:24;9.07;;;2.42;;
78783;SDS011;68127;51.050;14.084;2024-01-27T07:27:49;13.43;;;3.22;;
78783;SDS011;68127;51.050;14.084;2024-01-27T07:30:14;11.50;;;3.15;;
78783;SDS011;68127;51.050;14.084;2024-01-27T07:32:39;13.00;;;2.67;;
78783;SDS011;68127;51.050;14.084;2024-01-27T07:35:05;11.73;;;2.20;;
78783;SDS011;68127;51.050;14.084;2024-01-27T07:37:31;16.48;;;2.33;;
78783;SDS011;68127;51.050;14.084;2024-01-27T07:39:56;9.82;;;2.55;;
78783;SDS011;68127;51.050;14.084;2024-01-27T07:42:21;13.23;;;2.40;;
78783;SDS011;68127;51.050;14.084;2024-01-27T07:44:47;15.93;;;2.83;;
78783;SDS011;68127;51.050;14.084;2024-01-27T07:47:12;16.27;;;2.45;;
78783;SDS011;68127;51.050;14.084;2024-01-27T07:49:37;10.15;;;2.80;;
78783;SDS011;68127;51.050;14.084;2024-01-27T07:52:02;9.80;;;2.38;;
78783;SDS011;68127;51.050;14.084;2024-01-27T07:54:28;12.88;;;2.40;;
78783;SDS011;68127;51.050;14.084;2024-01-27T07:56:54;18.13;;;3.45;;
78783;SDS011;68127;51.050;14.084;2024-01-27T07:59:19;13.88;;;2.90;;
78783;SDS011;68127;51.050;14.084;2024-01-27T08:01:44;13.02;;;3.42;;
78783;SDS011;68127;51.050;14.084;2024-01-27T08:04:10;9.05;;;2.45;;
78783;SDS011;68127;51.050;14.084;2024-01-27T08:06:45;10.57;;;2.70;;
78783;SDS011;68127;51.050;14.084;2024-01-27T08:09:11;13.57;;;2.30;;
78783;SDS011;68127;51.050;14.084;2024-01-27T08:11:37;15.57;;;2.88;;
78783;SDS011;68127;51.050;14.084;2024-01-27T08:14:02;12.65;;;2.28;;
78783;SDS011;68127;51.050;14.084;2024-01-27T08:16:27;11.38;;;2.70;;
78783;SDS011;68127;51.050;14.084;2024-01-27T08:18:53;10.25;;;2.33;;
78783;SDS011;68127;51.050;14.084;2024-01-27T08:21:18;15.50;;;3.28;;
78783;SDS011;68127;51.050;14.084;2024-01-27T08:23:43;13.18;;;2.50;;
78783;SDS011;68127;51.050;14.084;2024-01-27T08:26:09;12.25;;;2.47;;
78783;SDS011;68127;51.050;14.084;2024-01-27T08:28:50;11.35;;;3.15;;
78783;SDS011;68127;51.050;14.084;2024-01-27T08:31:15;10.38;;;2.15;;
78783;SDS011;68127;51.050;14.084;2024-01-27T08:33:41;11.45;;;2.38;;
78783;SDS011;68127;51.050;14.084;2024-01-27T08:36:06;12.00;;;2.85;;
78783;SDS011;68127;51.050;14.084;2024-01-27T08:38:31;9.20;;;2.00;;
78783;SDS011;68127;51.050;14.084;2024-01-27T08:40:57;15.30;;;2.60;;
78783;SDS011;68127;51.050;14.084;2024-01-27T08:43:22;17.83;;;3.15;;
78783;SDS011;68127;51.050;14.084;2024-01-27T08:45:47;14.68;;;2.40;;
78783;SDS011;68127;51.050;14.084;2024-01-27T08:48:12;9.88;;;2.65;;
78783;SDS011;68127;51.050;14.084;2024-01-27T08:50:38;9.30;;;2.45;;
78783;SDS011;68127;51.050;14.084;2024-01-27T08:53:04;11.30;;;2.90;;
78783;SDS011;68127;51.050;14.084;2024-01-27T08:55:29;19.92;;;3.75;;
78783;SDS011;68127;51.050;14.084;2024-01-27T08:57:56;14.30;;;2.85;;
78783;SDS011;68127;51.050;14.084;2024-01-27T09:00:22;13.45;;;2.90;;
78783;SDS011;68127;51.050;14.084;2024-01-27T09:02:47;9.80;;;2.70;;
78783;SDS011;68127;51.050;14.084;2024-01-27T09:05:12;10.35;;;2.80;;
78783;SDS011;68127;51.050;14.084;2024-01-27T09:07:38;13.88;;;2.70;;
78783;SDS011;68127;51.050;14.084;2024-01-27T09:10:03;18.00;;;3.00;;
78783;SDS011;68127;51.050;14.084;2024-01-27T09:12:28;12.38;;;4.18;;
78783;SDS011;68127;51.050;14.084;2024-01-27T09:14:54;10.73;;;2.47;;
78783;SDS011;68127;51.050;14.084;2024-01-27T09:17:19;23.60;;;6.10;;
78783;SDS011;68127;51.050;14.084;2024-01-27T09:19:45;18.48;;;5.95;;
78783;SDS011;68127;51.050;14.084;2024-01-27T09:22:10;12.48;;;2.85;;
78783;SDS011;68127;51.050;14.084;2024-01-27T09:24:36;8.38;;;2.67;;
78783;SDS011;68127;51.050;14.084;2024-01-27T09:27:01;9.50;;;2.88;;
78783;SDS011;68127;51.050;14.084;2024-01-27T09:29:27;11.13;;;2.60;;
78783;SDS011;68127;51.050;14.084;2024-01-27T09:31:52;9.82;;;2.70;;
78783;SDS011;68127;51.050;14.084;2024-01-27T09:34:17;12.45;;;2.97;;
78783;SDS011;68127;51.050;14.084;2024-01-27T09:36:42;13.38;;;3.47;;
78783;SDS011;68127;51.050;14.084;2024-01-27T09:39:08;11.93;;;2.95;;
78783;SDS011;68127;51.050;14.084;2024-01-27T09:41:33;13.15;;;2.80;;
78783;SDS011;68127;51.050;14.084;2024-01-27T09:44:02;10.90;;;2.83;;
78783;SDS011;68127;51.050;14.084;2024-01-27T09:46:28;14.35;;;2.80;;
78783;SDS011;68127;51.050;14.084;2024-01-27T09:48:54;17.88;;;3.30;;
78783;SDS011;68127;51.050;14.084;2024-01-27T09:51:20;15.32;;;3.08;;
78783;SDS011;68127;51.050;14.084;2024-01-27T09:53:45;19.48;;;3.83;;
78783;SDS011;68127;51.050;14.084;2024-01-27T09:56:10;12.00;;;3.08;;
78783;SDS011;68127;51.050;14.084;2024-01-27T09:58:42;16.37;;;3.10;;
78783;SDS011;68127;51.050;14.084;2024-01-27T10:01:08;12.13;;;2.90;;
78783;SDS011;68127;51.050;14.084;2024-01-27T10:03:33;9.77;;;2.97;;
78783;SDS011;68127;51.050;14.084;2024-01-27T10:05:59;12.40;;;2.58;;
78783;SDS011;68127;51.050;14.084;2024-01-27T10:08:25;14.68;;;2.88;;
78783;SDS011;68127;51.050;14.084;2024-01-27T10:10:52;12.77;;;2.95;;
78783;SDS011;68127;51.050;14.084;2024-01-27T10:13:19;15.77;;;2.80;;
78783;SDS011;68127;51.050;14.084;2024-01-27T10:15:58;6.05;;;2.30;;
78783;SDS011;68127;51.050;14.084;2024-01-27T10:18:24;11.98;;;2.55;;
78783;SDS011;68127;51.050;14.084;2024-01-27T10:20:49;15.02;;;3.00;;
78783;SDS011;68127;51.050;14.084;2024-01-27T10:23:15;13.18;;;4.13;;
78783;SDS011;68127;51.050;14.084;2024-01-27T10:25:40;10.13;;;2.95;;
78783;SDS011;68127;51.050;14.084;2024-01-27T10:28:06;8.18;;;2.78;;
78783;SDS011;68127;51.050;14.084;2024-01-27T10:30:33;13.18;;;3.42;;
78783;SDS011;68127;51.050;14.084;2024-01-27T10:32:58;9.40;;;2.78;;
78783;SDS011;68127;51.050;14.084;2024-01-27T10:35:24;11.45;;;3.28;;
78783;SDS011;68127;51.050;14.084;2024-01-27T10:37:53;9.68;;;3.70;;
78783;SDS011;68127;51.050;14.084;2024-01-27T10:40:19;13.57;;;3.55;;
78783;SDS011;68127;51.050;14.084;2024-01-27T10:42:45;12.73;;;4.10;;
78783;SDS011;68127;51.050;14.084;2024-01-27T10:45:11;15.00;;;3.65;;
78783;SDS011;68127;51.050;14.084;2024-01-27T10:47:36;16.77;;;4.60;;
78783;SDS011;68127;51.050;14.084;2024-01-27T10:50:03;15.45;;;3.70;;
78783;SDS011;68127;51.050;14.084;2024-01-27T10:52:33;13.75;;;3.33;;
78783;SDS011;68127;51.050;14.084;2024-01-27T10:55:03;12.77;;;3.60;;
78783;SDS011;68127;51.050;14.084;2024-01-27T10:57:32;11.77;;;3.47;;
78783;SDS011;68127;51.050;14.084;2024-01-27T10:59:58;12.43;;;2.95;;
78783;SDS011;68127;51.050;14.084;2024-01-27T11:02:25;14.02;;;3.10;;
78783;SDS011;68127;51.050;14.084;2024-01-27T11:04:51;8.90;;;3.35;;
78783;SDS011;68127;51.050;14.084;2024-01-27T11:07:20;16.33;;;3.53;;
78783;SDS011;68127;51.050;14.084;2024-01-27T11:09:49;9.52;;;3.30;;
78783;SDS011;68127;51.050;14.084;2024-01-27T11:12:18;14.10;;;3.60;;
78783;SDS011;68127;51.050;14.084;2024-01-27T11:14:45;19.42;;;5.18;;
78783;SDS011;68127;51.050;14.084;2024-01-27T11:17:11;10.45;;;4.30;;
78783;SDS011;68127;51.050;14.084;2024-01-27T11:19:37;14.32;;;3.92;;
78783;SDS011;68127;51.050;14.084;2024-01-27T11:22:04;14.50;;;3.13;;
78783;SDS011;68127;51.050;14.084;2024-01-27T11:24:30;12.35;;;3.30;;
78783;SDS011;68127;51.050;14.084;2024-01-27T11:27:03;13.65;;;3.55;;
78783;SDS011;68127;51.050;14.084;2024-01-27T11:31:56;12.50;;;3.30;;
78783;SDS011;68127;51.050;14.084;2024-01-27T11:34:22;15.90;;;3.50;;
78783;SDS011;68127;51.050;14.084;2024-01-27T11:36:47;16.75;;;3.28;;
78783;SDS011;68127;51.050;14.084;2024-01-27T11:39:25;14.48;;;3.10;;
78783;SDS011;68127;51.050;14.084;2024-01-27T11:41:51;12.02;;;2.90;;
78783;SDS011;68127;51.050;14.084;2024-01-27T11:44:17;12.60;;;3.40;;
78783;SDS011;68127;51.050;14.084;2024-01-27T11:46:43;13.60;;;3.10;;
78783;SDS011;68127;51.050;14.084;2024-01-27T11:49:14;11.38;;;3.63;;
78783;SDS011;68127;51.050;14.084;2024-01-27T11:51:41;13.20;;;3.30;;
78783;SDS011;68127;51.050;14.084;2024-01-27T11:54:06;11.20;;;3.10;;
78783;SDS011;68127;51.050;14.084;2024-01-27T11:56:31;9.00;;;2.88;;
78783;SDS011;68127;51.050;14.084;2024-01-27T11:58:57;12.60;;;3.22;;
78783;SDS011;68127;51.050;14.084;2024-01-27T12:01:22;9.57;;;3.10;;
78783;SDS011;68127;51.050;14.084;2024-01-27T12:03:48;10.32;;;2.90;;
78783;SDS011;68127;51.050;14.084;2024-01-27T12:06:13;11.00;;;3.13;;
78783;SDS011;68127;51.050;14.084;2024-01-27T12:08:40;16.92;;;3.45;;
78783;SDS011;68127;51.050;14.084;2024-01-27T12:11:11;14.52;;;3.78;;
78783;SDS011;68127;51.050;14.084;2024-01-27T12:13:36;10.45;;;3.00;;
78783;SDS011;68127;51.050;14.084;2024-01-27T12:16:02;13.65;;;3.40;;
78783;SDS011;68127;51.050;14.084;2024-01-27T12:18:27;13.40;;;3.30;;
78783;SDS011;68127;51.050;14.084;2024-01-27T12:20:56;17.33;;;3.47;;
78783;SDS011;68127;51.050;14.084;2024-01-27T12:23:22;15.90;;;3.53;;
78783;SDS011;68127;51.050;14.084;2024-01-27T12:25:53;11.63;;;2.90;;
78783;SDS011;68127;51.050;14.084;2024-01-27T12:28:20;14.10;;;2.95;;
78783;SDS011;68127;51.050;14.084;2024-01-27T12:30:51;10.48;;;3.03;;
78783;SDS011;68127;51.050;14.084;2024-01-27T12:33:21;17.17;;;5.85;;
78783;SDS011;68127;51.050;14.084;2024-01-27T12:35:49;16.42;;;3.53;;
78783;SDS011;68127;51.050;14.084;2024-01-27T12:38:17;12.05;;;3.40;;
78783;SDS011;68127;51.050;14.084;2024-01-27T12:40:42;14.10;;;3.15;;
78783;SDS011;68127;51.050;14.084;2024-01-27T12:43:07;11.38;;;2.63;;
78783;SDS011;68127;51.050;14.084;2024-01-27T12:45:34;17.58;;;3.15;;
78783;SDS011;68127;51.050;14.084;2024-01-27T12:48:00;10.55;;;2.38;;
78783;SDS011;68127;51.050;14.084;2024-01-27T12:50:25;10.52;;;3.28;;
78783;SDS011;68127;51.050;14.084;2024-01-27T12:52:50;8.30;;;2.45;;
78783;SDS011;68127;51.050;14.084;2024-01-27T12:55:15;9.75;;;3.08;;
78783;SDS011;68127;51.050;14.084;2024-01-27T12:57:41;8.35;;;2.33;;
78783;SDS011;68127;51.050;14.084;2024-01-27T13:00:07;10.65;;;2.35;;
78783;SDS011;68127;51.050;14.084;2024-01-27T13:02:37;14.00;;;3.13;;
78783;SDS011;68127;51.050;14.084;2024-01-27T13:05:03;14.38;;;2.92;;
78783;SDS011;68127;51.050;14.084;2024-01-27T13:07:28;14.43;;;3.00;;
78783;SDS011;68127;51.050;14.084;2024-01-27T13:09:54;10.07;;;3.08;;
78783;SDS011;68127;51.050;14.084;2024-01-27T13:12:19;12.57;;;2.75;;
78783;SDS011;68127;51.050;14.084;2024-01-27T13:14:44;12.45;;;3.00;;
78783;SDS011;68127;51.050;14.084;2024-01-27T13:17:10;15.18;;;3.13;;
78783;SDS011;68127;51.050;14.084;2024-01-27T13:19:35;14.63;;;3.47;;
78783;SDS011;68127;51.050;14.084;2024-01-27T13:22:00;8.90;;;2.60;;
78783;SDS011;68127;51.050;14.084;2024-01-27T13:24:25;12.20;;;3.30;;
78783;SDS011;68127;51.050;14.084;2024-01-27T13:26:51;13.95;;;2.60;;
78783;SDS011;68127;51.050;14.084;2024-01-27T13:29:16;13.68;;;2.97;;
78783;SDS011;68127;51.050;14.084;2024-01-27T13:31:42;9.48;;;2.40;;
78783;SDS011;68127;51.050;14.084;2024-01-27T13:34:07;10.75;;;2.67;;
78783;SDS011;68127;51.050;14.084;2024-01-27T13:36:32;11.90;;;2.75;;
78783;SDS011;68127;51.050;14.084;2024-01-27T13:38:58;15.25;;;3.00;;
78783;SDS011;68127;51.050;14.084;2024-01-27T13:41:24;11.20;;;2.35;;
78783;SDS011;68127;51.050;14.084;2024-01-27T13:43:49;7.47;;;2.25;;
78783;SDS011;68127;51.050;14.084;2024-01-27T13:46:15;12.93;;;2.45;;
78783;SDS011;68127;51.050;14.084;2024-01-27T13:48:40;7.32;;;2.47;;
78783;SDS011;68127;51.050;14.084;2024-01-27T13:51:05;10.75;;;2.75;;
78783;SDS011;68127;51.050;14.084;2024-01-27T13:53:31;9.68;;;2.45;;
78783;SDS011;68127;51.050;14.084;2024-01-27T13:55:56;13.63;;;2.95;;
78783;SDS011;68127;51.050;14.084;2024-01-27T13:58:21;9.10;;;2.70;;
78783;SDS011;68127;51.050;14.084;2024-01-27T14:00:47;9.82;;;2.60;;
78783;SDS011;68127;51.050;14.084;2024-01-27T14:03:12;10.20;;;2.95;;
78783;SDS011;68127;51.050;14.084;2024-01-27T14:05:38;12.82;;;3.17;;
78783;SDS011;68127;51.050;14.084;2024-01-27T14:08:03;12.80;;;3.10;;
78783;SDS011;68127;51.050;14.084;2024-01-27T14:10:29;12.75;;;3.15;;
78783;SDS011;68127;51.050;14.084;2024-01-27T14:12:54;12.73;;;3.20;;
78783;SDS011;68127;51.050;14.084;2024-01-27T14:15:20;9.45;;;2.55;;
78783;SDS011;68127;51.050;14.084;2024-01-27T14:17:45;13.30;;;3.13;;
78783;SDS011;68127;51.050;14.084;2024-01-27T14:20:11;15.02;;;2.60;;
78783;SDS011;68127;51.050;14.084;2024-01-27T14:22:37;12.60;;;3.05;;